Time;durP1;ratioP1;P1;durP2;ratioP2;P2;SDS_P1;SDS_P2;PMS_P1;PMS_P2;Temp;Humidity;BMP_temperature;BMP_pressure;BME280_temperature;BME280_humidity;BME280_pressure;Samples;Min_cycle;Max_cycle;Signal;HPM_P1;HPM_P2
2022/09/14 00:00:25;;;;;;;5.35;1.85;;;14.10;99.90;;;;;;4943103;29;20063;-74
2022/09/14 00:02:59;;;;;;;4.57;1.60;;;14.20;99.90;;;;;;4937142;29;20057;-75
2022/09/14 00:05:45;;;;;;;2.85;1.50;;;14.20;99.90;;;;;;4940578;29;20178;-74
2022/09/14 00:08:17;;;;;;;3.47;1.95;;;14.20;99.90;;;;;;4953125;29;20418;-75
2022/09/14 00:10:44;;;;;;;3.08;1.27;;;14.20;99.90;;;;;;4969502;28;20113;-74
2022/09/14 00:13:19;;;;;;;3.60;1.52;;;14.20;99.90;;;;;;4936798;29;20057;-74
2022/09/14 00:15:45;;;;;;;6.00;1.80;;;14.20;99.90;;;;;;4937523;29;20063;-75
2022/09/14 00:18:11;;;;;;;2.25;1.90;;;14.10;99.90;;;;;;4921823;29;20114;-74
2022/09/14 00:20:42;;;;;;;2.75;1.70;;;14.20;99.90;;;;;;4923062;29;20050;-74
2022/09/14 00:23:08;;;;;;;4.85;2.08;;;14.20;99.90;;;;;;4921290;29;20047;-74
2022/09/14 00:25:34;;;;;;;4.28;2.10;;;14.10;99.90;;;;;;4953944;29;20055;-75
2022/09/14 00:28:12;;;;;;;3.40;1.20;;;14.10;99.90;;;;;;4938343;29;20133;-74
2022/09/14 00:30:41;;;;;;;4.05;1.45;;;14.00;99.90;;;;;;4942242;29;20051;-74
2022/09/14 00:33:09;;;;;;;1.75;1.65;;;14.10;99.90;;;;;;4925259;29;20425;-75
2022/09/14 00:35:35;;;;;;;2.65;1.75;;;14.00;99.90;;;;;;4941132;29;20051;-73
2022/09/14 00:38:08;;;;;;;3.67;1.90;;;13.90;99.90;;;;;;4956461;29;20118;-74
2022/09/14 00:40:34;;;;;;;2.72;1.60;;;13.90;99.90;;;;;;4957001;29;20106;-73
2022/09/14 00:43:01;;;;;;;4.28;1.70;;;13.90;99.90;;;;;;4940637;29;20082;-74
2022/09/14 00:45:28;;;;;;;2.55;1.35;;;13.80;99.90;;;;;;4956888;29;20127;-74
2022/09/14 00:47:56;;;;;;;2.65;1.67;;;13.80;99.90;;;;;;4940921;29;20062;-73
2022/09/14 00:50:22;;;;;;;1.95;1.80;;;13.80;99.90;;;;;;4940220;29;20118;-72
2022/09/14 00:52:49;;;;;;;2.63;1.58;;;13.80;99.90;;;;;;4955882;29;20043;-74
2022/09/14 00:55:23;;;;;;;3.53;1.73;;;13.70;99.90;;;;;;4957516;28;20047;-74
2022/09/14 00:58:01;;;;;;;3.13;2.08;;;13.70;99.90;;;;;;4942554;29;20101;-73
2022/09/14 01:00:30;;;;;;;3.90;1.85;;;13.60;99.90;;;;;;4972461;28;20134;-74
2022/09/14 01:02:59;;;;;;;4.95;1.52;;;13.60;99.90;;;;;;4972532;28;20082;-73
2022/09/14 01:05:54;;;;;;;5.53;1.77;;;13.60;99.90;;;;;;4941110;29;20047;-73
2022/09/14 01:08:42;;;;;;;4.05;1.70;;;13.50;99.90;;;;;;4955031;29;20062;-74
2022/09/14 01:11:34;;;;;;;4.50;1.83;;;13.50;99.90;;;;;;4970644;28;20059;-73
2022/09/14 01:14:28;;;;;;;6.03;2.45;;;13.50;99.90;;;;;;4956517;29;20055;-73
2022/09/14 01:17:09;;;;;;;4.20;1.92;;;13.40;99.90;;;;;;4955849;29;20047;-74
2022/09/14 01:20:21;;;;;;;4.47;2.05;;;13.40;99.90;;;;;;4939893;29;20043;-74
2022/09/14 01:23:16;;;;;;;7.53;2.50;;;13.30;99.90;;;;;;4956427;29;20078;-73
2022/09/14 01:26:12;;;;;;;6.20;2.42;;;13.30;99.90;;;;;;4954189;28;20062;-74
2022/09/14 01:29:25;;;;;;;3.92;2.00;;;13.30;99.90;;;;;;4957172;28;20090;-73
2022/09/14 01:31:58;;;;;;;6.13;2.47;;;13.30;99.90;;;;;;4955309;29;20055;-73
2022/09/14 01:34:28;;;;;;;2.80;2.22;;;13.00;99.90;;;;;;4939369;29;20114;-74
2022/09/14 01:37:15;;;;;;;3.08;2.08;;;13.20;99.90;;;;;;4955859;28;20109;-73
2022/09/14 01:40:03;;;;;;;2.30;1.95;;;13.20;99.90;;;;;;4970519;28;20456;-74
2022/09/14 01:42:30;;;;;;;3.20;2.60;;;13.10;99.90;;;;;;4955825;29;20059;-74
2022/09/14 01:45:01;;;;;;;4.00;2.17;;;13.10;99.90;;;;;;4955689;29;20512;-74
2022/09/14 01:47:40;;;;;;;3.42;2.65;;;13.00;99.90;;;;;;4955868;28;20047;-73
2022/09/14 01:50:47;;;;;;;3.30;2.30;;;13.00;99.90;;;;;;4955816;29;20058;-74
2022/09/14 01:53:41;;;;;;;3.20;1.65;;;13.00;99.90;;;;;;4969000;28;20059;-73
2022/09/14 01:56:22;;;;;;;2.50;1.52;;;13.00;99.90;;;;;;4938947;29;20094;-73
2022/09/14 01:59:15;;;;;;;4.70;2.50;;;12.90;99.90;;;;;;4955585;29;20120;-74
2022/09/14 02:02:04;;;;;;;13.10;2.83;;;12.90;99.90;;;;;;4940818;28;20058;-74
2022/09/14 02:04:56;;;;;;;6.78;2.88;;;12.90;99.90;;;;;;4974454;28;20101;-73
2022/09/14 02:07:35;;;;;;;4.32;2.42;;;12.90;99.90;;;;;;4958571;28;20058;-74
2022/09/14 02:10:13;;;;;;;4.40;2.55;;;12.90;99.90;;;;;;4960128;28;20061;-73
2022/09/14 02:12:42;;;;;;;4.22;2.40;;;12.90;99.90;;;;;;4958314;28;20460;-74
2022/09/14 02:15:12;;;;;;;5.10;2.60;;;12.90;99.90;;;;;;4958426;28;20050;-74
2022/09/14 02:17:53;;;;;;;5.03;2.33;;;12.90;99.90;;;;;;4975319;28;20133;-74
2022/09/14 02:20:47;;;;;;;5.05;2.70;;;12.90;99.90;;;;;;4958736;28;20053;-74
2022/09/14 02:23:14;;;;;;;5.13;2.70;;;12.90;99.90;;;;;;4958350;28;20047;-74
2022/09/14 02:25:46;;;;;;;3.15;2.58;;;13.00;99.90;;;;;;4942722;28;20058;-72
2022/09/14 02:28:12;;;;;;;5.07;2.50;;;13.00;99.90;;;;;;4942130;28;20109;-72
2022/09/14 02:31:09;;;;;;;4.70;3.15;;;13.10;99.90;;;;;;4926480;28;20453;-72
2022/09/14 02:34:03;;;;;;;4.15;3.28;;;13.10;99.90;;;;;;4958192;28;20387;-73
2022/09/14 02:36:52;;;;;;;3.50;2.70;;;13.20;99.90;;;;;;4957656;28;20126;-72
2022/09/14 02:39:49;;;;;;;5.43;2.55;;;13.20;99.90;;;;;;4958000;28;20043;-73
2022/09/14 02:42:52;;;;;;;4.53;2.72;;;13.20;99.90;;;;;;4918687;28;20170;-73
2022/09/14 02:45:55;;;;;;;4.07;2.80;;;13.20;99.90;;;;;;4957881;28;20407;-72
2022/09/14 02:49:11;;;;;;;4.93;2.30;;;13.30;99.90;;;;;;4973844;28;20101;-73
2022/09/14 02:51:49;;;;;;;5.25;2.70;;;13.30;99.90;;;;;;4922853;28;20134;-73
2022/09/14 02:54:26;;;;;;;7.05;3.42;;;13.30;99.90;;;;;;4975020;28;20047;-72
2022/09/14 02:56:53;;;;;;;2.60;2.25;;;13.40;99.90;;;;;;4973633;28;20050;-73
2022/09/14 02:59:20;;;;;;;3.05;2.60;;;13.40;99.90;;;;;;4926356;28;20126;-72
2022/09/14 03:01:46;;;;;;;6.50;3.33;;;13.50;99.90;;;;;;4925081;28;20059;-73
2022/09/14 03:04:24;;;;;;;6.80;2.72;;;13.50;99.90;;;;;;4942351;28;20061;-72
2022/09/14 03:06:50;;;;;;;4.32;2.58;;;13.60;99.90;;;;;;4957367;28;20093;-73
2022/09/14 03:09:16;;;;;;;2.97;2.20;;;13.60;99.90;;;;;;4957710;28;20471;-72
2022/09/14 03:11:42;;;;;;;3.95;2.42;;;13.70;99.90;;;;;;4925559;28;20046;-72
2022/09/14 03:14:23;;;;;;;4.22;2.28;;;13.70;99.90;;;;;;4944570;28;20097;-72
2022/09/14 03:16:51;;;;;;;12.23;3.17;;;13.80;99.90;;;;;;4973238;28;20049;-73
2022/09/14 03:19:19;;;;;;;4.45;2.92;;;13.90;99.90;;;;;;4957277;28;20046;-73
2022/09/14 03:21:45;;;;;;;5.32;2.63;;;13.90;99.90;;;;;;4940529;28;20088;-72
2022/09/14 03:24:18;;;;;;;5.20;2.28;;;14.10;99.90;;;;;;4927178;28;20104;-72
2022/09/14 03:26:44;;;;;;;5.90;2.50;;;13.90;99.90;;;;;;4926023;28;20152;-73
2022/09/14 03:29:11;;;;;;;3.60;2.33;;;14.00;99.90;;;;;;4941074;28;20063;-72
2022/09/14 03:31:43;;;;;;;3.33;2.00;;;14.00;99.90;;;;;;4925474;28;20054;-73
2022/09/14 03:34:09;;;;;;;4.47;2.78;;;14.00;99.90;;;;;;4957273;28;20077;-73
2022/09/14 03:36:38;;;;;;;3.92;2.67;;;14.10;99.90;;;;;;4956998;28;20050;-72
2022/09/14 03:39:25;;;;;;;4.40;2.38;;;14.10;99.90;;;;;;4940937;28;20054;-72
2022/09/14 03:41:53;;;;;;;3.25;1.80;;;14.20;99.90;;;;;;4957028;28;20052;-73
2022/09/14 03:44:35;;;;;;;5.05;2.58;;;14.20;99.90;;;;;;4941034;28;20057;-73
2022/09/14 03:47:21;;;;;;;3.53;1.98;;;14.20;99.90;;;;;;4956383;28;20061;-72
2022/09/14 03:49:47;;;;;;;2.38;1.52;;;14.20;99.90;;;;;;4940982;28;20478;-73
2022/09/14 03:52:14;;;;;;;2.78;2.10;;;14.30;99.90;;;;;;4973180;28;20061;-73
2022/09/14 03:54:40;;;;;;;5.70;2.22;;;14.30;99.90;;;;;;4925009;28;20043;-73
2022/09/14 03:57:07;;;;;;;3.65;2.20;;;14.30;99.90;;;;;;4956694;28;20053;-73
2022/09/14 03:59:34;;;;;;;4.15;2.40;;;14.40;99.90;;;;;;4956265;28;20101;-73
2022/09/14 04:02:06;;;;;;;2.65;2.45;;;14.30;99.90;;;;;;4973731;28;20057;-72
2022/09/14 04:04:34;;;;;;;3.17;2.42;;;14.40;99.90;;;;;;4956368;28;20050;-72
2022/09/14 04:06:59;;;;;;;7.30;2.45;;;14.40;99.90;;;;;;4957000;28;20166;-73
2022/09/14 04:09:34;;;;;;;6.40;2.65;;;14.40;99.90;;;;;;4957260;28;20055;-72
2022/09/14 04:12:05;;;;;;;6.80;2.78;;;14.40;99.90;;;;;;4956459;28;20117;-73
2022/09/14 04:14:36;;;;;;;7.70;2.60;;;14.40;99.90;;;;;;4973811;28;20133;-73
2022/09/14 04:17:02;;;;;;;4.30;2.40;;;14.40;99.90;;;;;;4956386;28;20085;-73
2022/09/14 04:19:28;;;;;;;5.55;2.20;;;14.40;99.90;;;;;;4972518;28;20094;-72
2022/09/14 04:21:54;;;;;;;2.83;2.10;;;14.40;99.90;;;;;;4940632;28;20143;-73
2022/09/14 04:24:21;;;;;;;3.92;2.45;;;14.40;99.90;;;;;;4924694;28;20109;-73
2022/09/14 04:26:48;;;;;;;5.00;2.25;;;14.40;99.90;;;;;;4955959;28;20047;-73
2022/09/14 04:29:14;;;;;;;3.17;2.38;;;14.40;99.90;;;;;;4940353;28;20050;-73
2022/09/14 04:31:40;;;;;;;4.65;2.20;;;14.40;99.90;;;;;;4956177;28;20247;-73
2022/09/14 04:34:06;;;;;;;7.03;2.38;;;14.40;99.90;;;;;;4955783;28;20102;-73
2022/09/14 04:36:32;;;;;;;2.65;2.28;;;14.40;99.90;;;;;;4956057;28;20526;-72
2022/09/14 04:39:00;;;;;;;5.28;2.30;;;14.40;99.90;;;;;;4940336;28;20054;-72
2022/09/14 04:41:26;;;;;;;5.70;3.28;;;14.40;99.90;;;;;;4972225;28;20051;-73
2022/09/14 04:44:13;;;;;;;8.77;2.63;;;14.40;99.90;;;;;;4956117;28;20468;-72
2022/09/14 04:46:51;;;;;;;5.93;2.60;;;14.40;99.90;;;;;;4969677;28;20070;-73
2022/09/14 04:49:17;;;;;;;2.55;2.08;;;14.40;99.90;;;;;;4972453;28;20560;-72
2022/09/14 04:51:46;;;;;;;4.15;2.75;;;14.40;99.90;;;;;;4941289;28;20452;-72
2022/09/14 04:54:17;;;;;;;5.45;1.95;;;14.40;99.90;;;;;;4956049;28;20086;-72
2022/09/14 04:56:51;;;;;;;;;;;14.40;99.90;;;;;;4972508;28;20126;-73
2022/09/14 04:59:20;;;;;;;3.15;2.00;;;14.40;99.90;;;;;;4972424;28;19965;-72
2022/09/14 05:01:49;;;;;;;3.22;1.90;;;14.40;99.90;;;;;;4939436;28;20082;-72
2022/09/14 05:04:21;;;;;;;2.08;1.85;;;14.40;99.90;;;;;;4956121;28;20054;-73
2022/09/14 05:06:49;;;;;;;7.70;2.40;;;14.40;99.90;;;;;;4955893;28;20090;-72
2022/09/14 05:09:17;;;;;;;3.30;1.50;;;14.40;99.90;;;;;;4924384;28;20513;-73
2022/09/14 05:11:45;;;;;;;3.83;1.85;;;14.40;99.90;;;;;;4956145;28;20181;-72
2022/09/14 05:14:14;;;;;;;4.38;2.10;;;14.40;99.90;;;;;;4972737;28;20054;-72
2022/09/14 05:16:48;;;;;;;2.28;2.08;;;14.40;99.90;;;;;;4975838;28;20112;-72
2022/09/14 05:19:27;;;;;;;5.57;2.33;;;14.40;99.90;;;;;;4976311;28;20047;-72
2022/09/14 05:21:52;;;;;;;3.95;2.10;;;14.40;99.90;;;;;;4959564;28;20105;-72
2022/09/14 05:24:28;;;;;;;1.95;1.75;;;14.40;99.90;;;;;;4959565;28;20134;-72
2022/09/14 05:26:54;;;;;;;4.45;2.00;;;14.40;99.90;;;;;;4975498;28;20050;-73
2022/09/14 05:29:21;;;;;;;3.90;2.03;;;14.40;99.90;;;;;;4958994;28;20073;-72
2022/09/14 05:31:48;;;;;;;9.82;2.47;;;14.50;99.90;;;;;;4975314;28;20086;-72
2022/09/14 05:34:21;;;;;;;;;;;14.40;99.90;;;;;;4976176;28;20150;-72
2022/09/14 05:36:48;;;;;;;6.28;2.33;;;14.40;99.90;;;;;;4943474;28;19921;-72
2022/09/14 05:39:14;;;;;;;5.70;2.00;;;14.40;99.90;;;;;;4959377;28;20054;-73
2022/09/14 05:41:48;;;;;;;3.30;2.13;;;14.50;99.90;;;;;;4944120;28;20089;-72
2022/09/14 05:44:13;;;;;;;3.10;1.95;;;14.50;99.90;;;;;;4974987;28;20058;-73
2022/09/14 05:46:41;;;;;;;5.70;2.05;;;14.50;99.90;;;;;;4942191;28;20489;-73
2022/09/14 05:49:15;;;;;;;4.38;2.33;;;14.60;99.90;;;;;;4943908;28;20483;-72
2022/09/14 05:51:42;;;;;;;3.90;2.80;;;14.60;99.90;;;;;;4910382;28;20113;-72
2022/09/14 05:54:10;;;;;;;2.50;2.17;;;14.60;99.90;;;;;;4941749;28;20070;-73
2022/09/14 05:56:44;;;;;;;3.13;2.30;;;14.60;99.90;;;;;;4943139;28;20121;-72
2022/09/14 05:59:12;;;;;;;2.78;2.10;;;14.70;99.90;;;;;;4910306;28;20065;-72
2022/09/14 06:01:39;;;;;;;6.30;2.60;;;14.70;99.90;;;;;;4957280;28;20074;-71
2022/09/14 06:04:12;;;;;;;4.32;1.60;;;14.80;99.90;;;;;;4909960;28;20124;-72
2022/09/14 06:06:38;;;;;;;;;;;14.80;99.90;;;;;;4974135;28;20125;-73
2022/09/14 06:09:05;;;;;;;3.63;2.00;;;14.90;99.90;;;;;;4956938;28;20414;-72
2022/09/14 06:11:37;;;;;;;3.15;1.77;;;14.90;99.90;;;;;;4957497;28;20078;-73
2022/09/14 06:14:04;;;;;;;5.05;2.60;;;14.90;99.90;;;;;;4957369;28;20066;-73
2022/09/14 06:16:32;;;;;;;6.63;2.65;;;14.90;99.90;;;;;;4957367;28;20042;-73
2022/09/14 06:19:03;;;;;;;3.88;2.13;;;14.90;99.90;;;;;;4957863;28;20548;-74
2022/09/14 06:21:32;;;;;;;3.70;2.28;;;15.00;99.90;;;;;;4975154;28;20046;-72
2022/09/14 06:24:00;;;;;;;2.53;1.35;;;15.10;99.90;;;;;;4958384;28;20133;-73
2022/09/14 06:26:27;;;;;;;3.50;1.95;;;15.20;99.90;;;;;;4957275;28;20050;-73
2022/09/14 06:28:54;;;;;;;3.53;2.22;;;15.30;99.90;;;;;;4958264;28;20061;-72
2022/09/14 06:31:22;;;;;;;2.85;1.98;;;15.30;99.90;;;;;;4958242;28;20133;-73
2022/09/14 06:33:49;;;;;;;5.03;1.95;;;15.30;99.90;;;;;;4942289;28;20122;-73
2022/09/14 06:36:26;;;;;;;5.22;1.90;;;15.40;99.90;;;;;;4958340;28;20051;-74
2022/09/14 06:38:52;;;;;;;2.13;1.98;;;15.50;99.90;;;;;;4958427;28;20473;-72
2022/09/14 06:41:39;;;;;;;6.00;2.25;;;15.50;99.90;;;;;;4957428;28;20546;-72
2022/09/14 06:44:11;;;;;;;3.70;1.70;;;15.60;99.90;;;;;;4958308;28;20105;-74
2022/09/14 06:46:56;;;;;;;3.67;1.90;;;15.60;99.90;;;;;;4942367;28;20094;-73
2022/09/14 06:49:51;;;;;;;3.92;2.08;;;15.70;99.90;;;;;;4957533;28;20093;-73
2022/09/14 06:52:36;;;;;;;2.50;1.77;;;15.70;99.90;;;;;;4972413;28;20141;-73
2022/09/14 06:55:08;;;;;;;3.22;1.70;;;15.80;99.90;;;;;;4957723;28;20087;-72
2022/09/14 06:57:36;;;;;;;1.50;1.40;;;15.80;99.90;;;;;;4925374;28;20145;-72
2022/09/14 07:00:04;;;;;;;5.45;2.10;;;15.90;99.90;;;;;;4941333;28;20065;-72
2022/09/14 07:02:35;;;;;;;6.30;2.00;;;15.90;99.90;;;;;;4957416;28;20098;-72
2022/09/14 07:05:02;;;;;;;3.15;2.22;;;16.00;99.90;;;;;;4957437;28;20144;-72
2022/09/14 07:07:28;;;;;;;3.85;2.05;;;16.10;99.90;;;;;;4974342;28;20062;-72
2022/09/14 07:09:55;;;;;;;5.60;1.50;;;16.20;99.90;;;;;;4926209;28;20047;-71
2022/09/14 07:12:21;;;;;;;3.42;2.30;;;16.30;99.90;;;;;;4940583;28;20059;-71
2022/09/14 07:14:53;;;;;;;6.22;2.00;;;16.40;99.90;;;;;;4957438;28;20101;-72
2022/09/14 07:17:19;;;;;;;2.73;1.37;;;16.50;99.90;;;;;;4957592;28;20479;-73
2022/09/14 07:19:54;;;;;;;2.00;1.50;;;16.50;99.90;;;;;;4941193;28;20038;-73
2022/09/14 07:22:24;;;;;;;6.63;1.73;;;16.60;99.90;;;;;;4934227;29;20063;-73
2022/09/14 07:24:57;;;;;;;3.35;2.00;;;16.70;99.90;;;;;;4886422;29;20572;-73
2022/09/14 07:27:23;;;;;;;4.32;1.92;;;16.80;99.90;;;;;;4933955;29;20114;-74
2022/09/14 07:29:48;;;;;;;2.83;1.33;;;16.90;99.90;;;;;;4902259;29;20498;-73
2022/09/14 07:32:15;;;;;;;1.83;1.20;;;17.00;99.90;;;;;;4933457;29;20056;-73
2022/09/14 07:34:52;;;;;;;3.97;1.00;;;17.00;99.90;;;;;;4918141;29;20063;-73
2022/09/14 07:37:17;;;;;;;4.30;1.20;;;17.10;99.90;;;;;;4917608;29;20068;-73
2022/09/14 07:39:49;;;;;;;2.55;1.17;;;17.10;99.90;;;;;;4933585;29;20205;-73
2022/09/14 07:42:21;;;;;;;1.63;1.17;;;17.20;99.90;;;;;;4902888;29;20063;-73
2022/09/14 07:45:09;;;;;;;3.30;0.98;;;17.40;99.90;;;;;;4905660;29;20054;-74
2022/09/14 07:47:54;;;;;;;;;;;17.50;99.90;;;;;;4934142;29;20134;-73
2022/09/14 07:50:31;;;;;;;3.50;1.17;;;17.50;99.90;;;;;;4901505;29;19930;-73
2022/09/14 07:53:04;;;;;;;1.30;0.90;;;17.50;99.90;;;;;;4945860;28;20062;-74
2022/09/14 07:55:36;;;;;;;2.00;1.00;;;17.60;99.90;;;;;;4956780;28;20057;-73
2022/09/14 07:58:07;;;;;;;0.85;0.82;;;17.70;99.90;;;;;;4956934;28;20133;-73
2022/09/14 08:00:34;;;;;;;1.77;1.17;;;17.80;99.90;;;;;;4953219;29;20086;-73
2022/09/14 08:03:10;;;;;;;3.22;1.02;;;17.90;99.90;;;;;;4953563;28;20055;-70
2022/09/14 08:05:44;;;;;;;3.42;1.08;;;18.10;99.90;;;;;;4923350;29;20083;-74
2022/09/14 08:08:20;;;;;;;8.18;1.20;;;18.20;99.90;;;;;;4938289;29;20420;-76
2022/09/14 08:11:10;;;;;;;3.33;1.23;;;18.20;99.90;;;;;;4938251;29;20134;-75
2022/09/14 08:14:14;;;;;;;1.90;1.30;;;18.20;99.90;;;;;;4953600;29;20055;-76
2022/09/14 08:16:53;;;;;;;2.72;1.27;;;18.20;99.90;;;;;;4953575;29;20059;-75
2022/09/14 08:19:22;;;;;;;4.43;1.45;;;18.20;99.90;;;;;;4951915;29;20055;-76
2022/09/14 08:21:57;;;;;;;2.38;1.00;;;18.30;99.90;;;;;;4938540;29;20054;-75
2022/09/14 08:24:41;;;;;;;3.63;1.45;;;18.40;99.90;;;;;;4969232;28;20047;-73
2022/09/14 08:27:32;;;;;;;2.13;1.00;;;18.50;99.90;;;;;;4969208;28;20051;-77
2022/09/14 08:30:02;;;;;;;2.58;0.93;;;18.60;99.90;;;;;;4954585;29;20134;-73
2022/09/14 08:35:16;;;;;;;4.28;1.50;;;19.10;99.90;;;;;;4940149;29;20040;-73
2022/09/14 08:37:46;;;;;;;2.08;1.00;;;19.70;99.90;;;;;;4954120;28;20051;-72
2022/09/14 08:40:33;;;;;;;2.40;1.77;;;19.70;99.90;;;;;;4952531;29;20039;-73
2022/09/14 08:43:03;;;;;;;4.75;1.13;;;19.40;99.90;;;;;;4952445;29;20389;-72
2022/09/14 08:45:31;;;;;;;3.88;1.20;;;19.10;99.90;;;;;;4921257;29;20056;-74
2022/09/14 08:47:57;;;;;;;4.50;1.27;;;18.90;99.90;;;;;;4937294;29;20055;-73
2022/09/14 08:50:39;;;;;;;3.70;1.20;;;18.80;99.90;;;;;;4940922;29;20113;-72
2022/09/14 08:53:26;;;;;;;4.43;1.23;;;18.90;99.90;;;;;;4942678;29;20142;-75
2022/09/14 08:56:10;;;;;;;3.03;1.40;;;19.20;99.90;;;;;;4925225;29;20047;-74
2022/09/14 08:59:28;;;;;;;3.53;2.63;;;19.90;99.90;;;;;;4925051;29;20043;-74
2022/09/14 09:02:17;;;;;;;2.55;1.00;;;20.00;99.20;;;;;;4923015;29;20059;-75
2022/09/14 09:05:23;;;;;;;4.10;1.38;;;20.20;99.90;;;;;;4935897;29;20052;-79
2022/09/14 09:08:13;;;;;;;3.42;1.50;;;20.50;99.90;;;;;;4922019;29;20150;-77
2022/09/14 09:10:39;;;;;;;2.88;1.48;;;20.60;99.60;;;;;;4938407;29;20059;-75
2022/09/14 09:13:19;;;;;;;5.88;1.70;;;20.50;99.90;;;;;;4937875;29;20361;-70
2022/09/14 09:16:12;;;;;;;2.83;1.35;;;20.90;99.90;;;;;;4937296;29;20043;-72
2022/09/14 09:19:02;;;;;;;2.65;1.17;;;21.00;97.10;;;;;;4921152;29;20114;-80
2022/09/14 09:21:32;;;;;;;3.40;1.40;;;22.10;97.10;;;;;;4953052;29;20371;-74
2022/09/14 09:24:16;;;;;;;4.53;1.23;;;23.40;97.50;;;;;;4937417;29;20139;-73
2022/09/14 09:26:42;;;;;;;4.82;1.40;;;24.10;94.50;;;;;;4921745;29;20044;-79
2022/09/14 09:29:09;;;;;;;3.35;1.05;;;24.00;96.00;;;;;;4921420;29;20054;-77
2022/09/14 09:31:37;;;;;;;4.35;1.45;;;23.70;95.90;;;;;;4953217;29;20083;-80
2022/09/14 09:34:03;;;;;;;16.45;2.35;;;23.30;95.20;;;;;;4953046;29;20055;-79
2022/09/14 09:36:42;;;;;;;4.22;1.40;;;23.60;95.40;;;;;;4952473;29;20138;-76
2022/09/14 09:39:17;;;;;;;6.13;1.67;;;24.40;94.30;;;;;;4920484;29;20075;-77
2022/09/14 09:42:11;;;;;;;2.13;1.60;;;24.90;94.40;;;;;;4937222;29;20113;-77
2022/09/14 09:44:58;;;;;;;;;;;25.10;90.00;;;;;;4921329;29;20047;-76
2022/09/14 09:47:40;;;;;;;4.43;1.13;;;25.90;91.10;;;;;;4936211;29;19942;-77
2022/09/14 09:50:20;;;;;;;5.85;1.42;;;26.20;89.10;;;;;;4923070;29;20107;-77
2022/09/14 09:53:00;;;;;;;3.05;1.10;;;24.90;92.00;;;;;;4920997;29;20086;-76
2022/09/14 09:55:34;;;;;;;3.13;1.15;;;24.30;91.60;;;;;;4903652;29;20094;-79
2022/09/14 09:58:27;;;;;;;5.88;1.23;;;23.50;90.70;;;;;;4921419;29;20456;-76
2022/09/14 10:01:19;;;;;;;5.20;1.27;;;23.80;90.50;;;;;;4926489;29;20134;-77
2022/09/14 10:04:31;;;;;;;3.03;1.23;;;24.00;92.00;;;;;;4971756;28;20049;-77
2022/09/14 10:06:58;;;;;;;2.50;1.00;;;23.30;89.10;;;;;;4956151;29;20051;-77
2022/09/14 10:09:36;;;;;;;2.92;1.17;;;23.00;92.60;;;;;;4924569;29;20106;-78
2022/09/14 10:12:04;;;;;;;3.73;1.17;;;22.80;91.10;;;;;;4939665;29;20448;-77
2022/09/14 10:14:33;;;;;;;2.35;1.00;;;22.70;92.30;;;;;;4923594;29;20287;-77
2022/09/14 10:17:05;;;;;;;3.25;1.60;;;22.80;92.00;;;;;;4955284;29;20380;-77
2022/09/14 10:19:32;;;;;;;1.50;1.10;;;22.90;91.40;;;;;;4971689;28;20051;-77
2022/09/14 10:22:19;;;;;;;2.30;0.80;;;22.90;92.00;;;;;;4971242;28;20729;-77
2022/09/14 10:25:14;;;;;;;3.67;1.25;;;23.10;92.00;;;;;;4955359;29;20054;-78
2022/09/14 10:27:47;;;;;;;3.78;1.70;;;23.10;91.10;;;;;;4955090;29;20055;-77
2022/09/14 10:30:33;;;;;;;;;;;23.10;90.70;;;;;;4939575;29;20039;-77
2022/09/14 10:33:19;;;;;;;2.30;0.80;;;23.20;90.10;;;;;;4968112;28;19923;-78
2022/09/14 10:35:44;;;;;;;2.38;1.10;;;24.00;85.20;;;;;;4923820;29;20156;-77
2022/09/14 10:38:57;;;;;;;4.53;1.13;;;24.40;90.40;;;;;;4970777;28;20129;-78
2022/09/14 10:41:44;;;;;;;0.93;0.90;;;24.70;89.20;;;;;;4955142;29;20078;-77
2022/09/14 10:44:34;;;;;;;2.60;1.20;;;24.90;90.50;;;;;;4968481;28;20126;-77
2022/09/14 10:47:37;;;;;;;2.55;0.90;;;24.80;86.30;;;;;;4938950;29;20059;-77
2022/09/14 10:50:35;;;;;;;2.85;1.55;;;24.20;86.70;;;;;;4970246;28;20043;-77
2022/09/14 10:53:35;;;;;;;3.55;1.23;;;24.00;89.20;;;;;;4955319;29;20047;-78
2022/09/14 10:56:25;;;;;;;8.23;2.13;;;23.00;88.20;;;;;;4953827;29;20059;-78
2022/09/14 10:59:07;;;;;;;4.88;1.05;;;22.60;89.60;;;;;;4954575;29;20059;-78
2022/09/14 11:02:03;;;;;;;5.73;1.20;;;22.10;90.00;;;;;;4970080;28;20059;-77
2022/09/14 11:04:41;;;;;;;8.25;1.40;;;21.80;91.40;;;;;;4938459;29;20501;-77
2022/09/14 11:07:45;;;;;;;5.45;1.10;;;21.60;92.00;;;;;;4939275;29;20043;-78
2022/09/14 11:10:54;;;;;;;2.88;1.63;;;21.40;92.10;;;;;;4954038;29;20043;-78
2022/09/14 11:13:42;;;;;;;3.13;1.48;;;21.30;92.40;;;;;;4954351;28;20106;-78
2022/09/14 11:16:50;;;;;;;2.63;1.00;;;21.10;92.00;;;;;;4954875;29;20039;-79
2022/09/14 11:19:26;;;;;;;7.10;1.42;;;20.90;93.80;;;;;;4953967;29;20400;-78
2022/09/14 11:22:11;;;;;;;6.13;1.42;;;20.90;92.80;;;;;;4955354;28;20145;-78
2022/09/14 11:25:22;;;;;;;2.25;1.00;;;21.00;91.90;;;;;;4953762;28;20380;-78
2022/09/14 11:28:02;;;;;;;5.32;1.45;;;21.10;92.10;;;;;;4938792;29;20069;-78
2022/09/14 11:30:40;;;;;;;0.98;0.80;;;21.20;92.10;;;;;;4968914;28;20057;-78
2022/09/14 11:33:18;;;;;;;3.72;1.55;;;21.00;92.60;;;;;;4954184;29;20047;-78
2022/09/14 11:36:08;;;;;;;3.50;1.55;;;20.90;93.20;;;;;;4969790;28;20082;-78
2022/09/14 11:39:03;;;;;;;1.80;0.93;;;21.00;93.30;;;;;;4953342;29;20126;-80
2022/09/14 11:41:48;;;;;;;1.83;1.17;;;20.90;93.10;;;;;;4935731;29;20102;-78
2022/09/14 11:44:35;;;;;;;2.55;1.13;;;20.90;93.30;;;;;;4953802;29;20232;-78
2022/09/14 11:47:34;;;;;;;4.65;1.10;;;20.90;93.20;;;;;;4937072;29;20240;-79
2022/09/14 11:50:26;;;;;;;2.22;1.10;;;20.90;93.60;;;;;;4937678;29;20524;-78
2022/09/14 11:53:07;;;;;;;5.00;1.60;;;20.80;93.60;;;;;;4953360;29;20160;-79
2022/09/14 11:55:34;;;;;;;4.63;0.90;;;20.90;92.60;;;;;;4969598;28;20060;-78
2022/09/14 11:58:05;;;;;;;2.05;1.10;;;20.80;92.40;;;;;;4937224;29;20043;-79
2022/09/14 12:00:52;;;;;;;1.33;0.98;;;20.90;92.80;;;;;;4922544;28;20542;-78
2022/09/14 12:04:07;;;;;;;4.45;1.20;;;21.00;93.10;;;;;;4971416;28;20112;-79
2022/09/14 12:06:53;;;;;;;3.15;1.48;;;21.10;93.40;;;;;;4951905;28;20379;-78
2022/09/14 12:09:52;;;;;;;3.25;1.13;;;20.90;92.90;;;;;;4971912;28;20058;-78
2022/09/14 12:12:30;;;;;;;4.45;1.23;;;20.80;92.60;;;;;;4956935;28;20069;-76
2022/09/14 12:15:21;;;;;;;5.30;1.48;;;21.00;93.10;;;;;;4956796;28;20054;-76
2022/09/14 12:18:05;;;;;;;2.25;1.13;;;20.90;93.10;;;;;;4958471;28;20049;-79
2022/09/14 12:20:49;;;;;;;1.73;1.08;;;21.00;93.10;;;;;;4956146;28;20042;-77
2022/09/14 12:23:41;;;;;;;3.93;1.13;;;21.20;92.70;;;;;;4971628;28;20057;-77
2022/09/14 12:26:09;;;;;;;;;;;21.20;92.90;;;;;;4960588;28;20059;-77
2022/09/14 12:28:42;;;;;;;6.20;1.77;;;21.10;92.50;;;;;;4960368;28;20001;-78
2022/09/14 12:31:16;;;;;;;4.50;1.30;;;21.20;93.10;;;;;;4960134;28;20082;-78
2022/09/14 12:34:19;;;;;;;3.55;1.30;;;21.10;92.60;;;;;;4928146;28;20538;-77
2022/09/14 12:36:51;;;;;;;6.63;1.45;;;21.30;92.00;;;;;;4960120;28;20054;-77
2022/09/14 12:39:37;;;;;;;6.90;1.45;;;21.60;92.60;;;;;;4976623;28;20070;-82
2022/09/14 12:42:26;;;;;;;5.63;1.00;;;21.80;92.00;;;;;;4944141;28;20046;-77
2022/09/14 12:45:37;;;;;;;3.75;1.30;;;21.70;91.90;;;;;;4960272;28;20161;-77
2022/09/14 12:48:07;;;;;;;3.33;1.67;;;21.80;91.90;;;;;;4959480;28;20043;-79
2022/09/14 12:50:36;;;;;;;1.92;1.05;;;21.70;91.40;;;;;;4976171;28;20063;-78
2022/09/14 12:53:28;;;;;;;1.85;1.20;;;21.40;92.10;;;;;;4959592;28;20043;-79
2022/09/14 12:56:08;;;;;;;3.47;0.98;;;21.20;91.50;;;;;;4959718;28;20105;-78
2022/09/14 12:59:20;;;;;;;3.50;1.20;;;21.10;91.80;;;;;;4960050;28;20153;-78
2022/09/14 13:02:32;;;;;;;2.17;1.20;;;20.90;92.00;;;;;;4974730;28;20082;-77
2022/09/14 13:04:58;;;;;;;3.57;1.27;;;20.80;92.30;;;;;;4959740;28;20082;-78
2022/09/14 13:07:34;;;;;;;3.38;1.40;;;20.80;92.80;;;;;;4959312;28;20387;-79
2022/09/14 13:10:03;;;;;;;3.50;1.20;;;20.90;92.70;;;;;;4960232;28;20113;-78
2022/09/14 13:12:49;;;;;;;5.53;1.25;;;21.10;92.70;;;;;;4959556;28;20047;-78
2022/09/14 13:15:38;;;;;;;4.40;1.40;;;21.10;92.10;;;;;;4942279;28;20411;-80
2022/09/14 13:18:16;;;;;;;4.65;2.05;;;21.30;91.70;;;;;;4943898;28;20086;-79
2022/09/14 13:20:57;;;;;;;2.67;1.50;;;21.10;92.10;;;;;;4975638;28;20047;-79
2022/09/14 13:23:50;;;;;;;4.95;1.60;;;20.90;92.10;;;;;;4958446;28;20126;-78
2022/09/14 13:26:33;;;;;;;3.83;1.50;;;20.60;92.50;;;;;;4960313;28;20058;-79
2022/09/14 13:29:07;;;;;;;3.95;1.20;;;20.30;92.60;;;;;;4959353;28;20167;-77
2022/09/14 13:31:35;;;;;;;9.32;1.50;;;20.40;93.70;;;;;;4959683;28;20472;-78
2022/09/14 13:34:33;;;;;;;3.30;1.52;;;20.30;93.30;;;;;;4975354;28;20074;-78
2022/09/14 13:37:22;;;;;;;3.25;1.23;;;20.30;93.20;;;;;;4974271;28;20055;-78
2022/09/14 13:39:52;;;;;;;2.65;1.15;;;20.20;93.60;;;;;;4930026;28;20043;-77
2022/09/14 13:42:19;;;;;;;4.47;1.40;;;20.30;93.60;;;;;;4975212;28;20133;-77
2022/09/14 13:44:53;;;;;;;2.53;1.30;;;20.30;93.50;;;;;;4959105;28;20066;-76